Terminal Aerodrome Forecast
Issued by NWS Houston/Galveston, TX

Home | Current Version | Previous Version | Text Only | Print | Product List | Glossary On
Versions: 1 2 3 4 5 6 7 8 9 10 11 12 13 14 15 16 17 18 19 20 21 22 23 24 25 26 27 28 29 30 31 32 33 34 35 36 37 38 39 40 41
000
FTUS44 KHGX 041738
TAFCLL
TAF
KCLL 041738Z 0418/0518 17014G18KT P6SM VCSH BKN025 BKN035
      TEMPO 0418/0422 -SHRA BKN035 OVC080
     FM042200 34013G23KT P6SM -SHRA OVC028
      TEMPO 0422/0501 4SM RA OVC013
     FM050100 35020G33KT P6SM -RA OVC009
     FM050600 35020G32KT 6SM -RA OVC007
     FM051300 01016G28KT P6SM -RA SCT006 OVC010 PROB30 0513/0516
      -RAPL OVC009
     FM051600 01015G24KT P6SM OVC015=

USA.gov is the U.S. government's official web portal to all federal, state and local government web resources and services.